sensor_id;sensor_type;location;lat;lon;timestamp;pressure;altitude;pressure_sealevel;temperature
45034;BMP280;30771;47.988;-4.186;2024-03-08T00:00:34;99896.59;;;10.98
45034;BMP280;30771;47.988;-4.186;2024-03-08T00:03:01;99892.91;;;10.99
45034;BMP280;30771;47.988;-4.186;2024-03-08T00:05:29;99896.59;;;10.98
45034;BMP280;30771;47.988;-4.186;2024-03-08T00:07:56;99886.06;;;10.98
45034;BMP280;30771;47.988;-4.186;2024-03-08T00:10:23;99886.84;;;10.99
45034;BMP280;30771;47.988;-4.186;2024-03-08T00:12:53;99887.06;;;10.97
45034;BMP280;30771;47.988;-4.186;2024-03-08T00:15:20;99881.16;;;11.02
45034;BMP280;30771;47.988;-4.186;2024-03-08T00:17:49;99874.66;;;11.04
45034;BMP280;30771;47.988;-4.186;2024-03-08T00:20:17;99875.47;;;11.05
45034;BMP280;30771;47.988;-4.186;2024-03-08T00:22:47;99869.97;;;11.06
45034;BMP280;30771;47.988;-4.186;2024-03-08T00:25:14;99872.59;;;11.06
45034;BMP280;30771;47.988;-4.186;2024-03-08T00:27:41;99865.56;;;11.00
45034;BMP280;30771;47.988;-4.186;2024-03-08T00:30:08;99856.03;;;10.99
45034;BMP280;30771;47.988;-4.186;2024-03-08T00:32:36;99855.25;;;10.99
45034;BMP280;30771;47.988;-4.186;2024-03-08T00:35:04;99850.19;;;10.97
45034;BMP280;30771;47.988;-4.186;2024-03-08T00:37:34;99847.78;;;10.96
45034;BMP280;30771;47.988;-4.186;2024-03-08T00:40:01;99830.34;;;10.95
45034;BMP280;30771;47.988;-4.186;2024-03-08T00:42:28;99838.84;;;10.97
45034;BMP280;30771;47.988;-4.186;2024-03-08T00:44:54;99837.25;;;10.96
45034;BMP280;30771;47.988;-4.186;2024-03-08T00:47:21;99816.59;;;10.93
45034;BMP280;30771;47.988;-4.186;2024-03-08T00:49:48;99816.00;;;10.91
45034;BMP280;30771;47.988;-4.186;2024-03-08T00:52:14;99800.88;;;10.86
45034;BMP280;30771;47.988;-4.186;2024-03-08T00:54:41;99799.25;;;10.85
45034;BMP280;30771;47.988;-4.186;2024-03-08T00:57:11;99787.69;;;10.86
45034;BMP280;30771;47.988;-4.186;2024-03-08T00:59:38;99784.25;;;10.86
45034;BMP280;30771;47.988;-4.186;2024-03-08T01:02:06;99775.53;;;10.85
45034;BMP280;30771;47.988;-4.186;2024-03-08T01:04:32;99766.28;;;10.83
45034;BMP280;30771;47.988;-4.186;2024-03-08T01:06:59;99770.94;;;10.81
45034;BMP280;30771;47.988;-4.186;2024-03-08T01:09:26;99769.13;;;10.81
45034;BMP280;30771;47.988;-4.186;2024-03-08T01:11:54;99761.22;;;10.81
45034;BMP280;30771;47.988;-4.186;2024-03-08T01:14:25;99757.78;;;10.81
45034;BMP280;30771;47.988;-4.186;2024-03-08T01:16:58;99752.72;;;10.79
45034;BMP280;30771;47.988;-4.186;2024-03-08T01:19:25;99761.63;;;10.78
45034;BMP280;30771;47.988;-4.186;2024-03-08T01:21:52;99746.06;;;10.77
45034;BMP280;30771;47.988;-4.186;2024-03-08T01:24:19;99747.31;;;10.74
45034;BMP280;30771;47.988;-4.186;2024-03-08T01:26:45;99744.88;;;10.73
45034;BMP280;30771;47.988;-4.186;2024-03-08T01:29:14;99734.81;;;10.70
45034;BMP280;30771;47.988;-4.186;2024-03-08T01:31:40;99737.28;;;10.65
45034;BMP280;30771;47.988;-4.186;2024-03-08T01:34:07;99733.84;;;10.64
45034;BMP280;30771;47.988;-4.186;2024-03-08T01:36:34;99735.06;;;10.62
45034;BMP280;30771;47.988;-4.186;2024-03-08T01:39:00;99739.53;;;10.61
45034;BMP280;30771;47.988;-4.186;2024-03-08T01:41:27;99726.59;;;10.60
45034;BMP280;30771;47.988;-4.186;2024-03-08T01:43:56;99730.00;;;10.60
45034;BMP280;30771;47.988;-4.186;2024-03-08T01:46:23;99726.00;;;10.58
45034;BMP280;30771;47.988;-4.186;2024-03-08T01:48:50;99718.75;;;10.53
45034;BMP280;30771;47.988;-4.186;2024-03-08T01:51:18;99720.78;;;10.51
45034;BMP280;30771;47.988;-4.186;2024-03-08T01:53:46;99727.13;;;10.50
45034;BMP280;30771;47.988;-4.186;2024-03-08T01:56:14;99714.75;;;10.51
45034;BMP280;30771;47.988;-4.186;2024-03-08T01:58:41;99710.69;;;10.48
45034;BMP280;30771;47.988;-4.186;2024-03-08T02:01:13;99700.81;;;10.44
45034;BMP280;30771;47.988;-4.186;2024-03-08T02:03:44;99697.16;;;10.45
45034;BMP280;30771;47.988;-4.186;2024-03-08T02:06:12;99691.91;;;10.45
45034;BMP280;30771;47.988;-4.186;2024-03-08T02:08:44;99700.63;;;10.45
45034;BMP280;30771;47.988;-4.186;2024-03-08T02:11:12;99697.63;;;10.42
45034;BMP280;30771;47.988;-4.186;2024-03-08T02:13:40;99702.28;;;10.40
45034;BMP280;30771;47.988;-4.186;2024-03-08T02:16:06;99688.53;;;10.38
45034;BMP280;30771;47.988;-4.186;2024-03-08T02:18:35;99676.16;;;10.38
45034;BMP280;30771;47.988;-4.186;2024-03-08T02:21:04;99675.56;;;10.36
45034;BMP280;30771;47.988;-4.186;2024-03-08T02:23:32;99679.25;;;10.35
45034;BMP280;30771;47.988;-4.186;2024-03-08T02:25:59;99668.72;;;10.35
45034;BMP280;30771;47.988;-4.186;2024-03-08T02:28:26;99676.38;;;10.37
45034;BMP280;30771;47.988;-4.186;2024-03-08T02:30:53;99678.78;;;10.38
45034;BMP280;30771;47.988;-4.186;2024-03-08T02:33:25;99673.97;;;10.35
45034;BMP280;30771;47.988;-4.186;2024-03-08T02:35:53;99669.50;;;10.36
45034;BMP280;30771;47.988;-4.186;2024-03-08T02:38:21;99669.50;;;10.36
45034;BMP280;30771;47.988;-4.186;2024-03-08T02:40:50;99670.75;;;10.33
45034;BMP280;30771;47.988;-4.186;2024-03-08T02:43:18;99673.38;;;10.33
45034;BMP280;30771;47.988;-4.186;2024-03-08T02:45:45;99666.53;;;10.32
45034;BMP280;30771;47.988;-4.186;2024-03-08T02:48:12;99670.16;;;10.31
45034;BMP280;30771;47.988;-4.186;2024-03-08T02:50:40;99666.94;;;10.29
45034;BMP280;30771;47.988;-4.186;2024-03-08T02:53:09;99659.88;;;10.30
45034;BMP280;30771;47.988;-4.186;2024-03-08T02:55:37;99659.06;;;10.29
45034;BMP280;30771;47.988;-4.186;2024-03-08T02:58:04;99652.97;;;10.29
45034;BMP280;30771;47.988;-4.186;2024-03-08T03:00:31;99651.59;;;10.26
45034;BMP280;30771;47.988;-4.186;2024-03-08T03:02:59;99656.28;;;10.24
45034;BMP280;30771;47.988;-4.186;2024-03-08T03:05:29;99640.31;;;10.19
45034;BMP280;30771;47.988;-4.186;2024-03-08T03:07:57;99651.44;;;10.21
45034;BMP280;30771;47.988;-4.186;2024-03-08T03:10:24;99654.28;;;10.19
45034;BMP280;30771;47.988;-4.186;2024-03-08T03:12:52;99649.28;;;10.18
45034;BMP280;30771;47.988;-4.186;2024-03-08T03:15:19;99637.13;;;10.17
45034;BMP280;30771;47.988;-4.186;2024-03-08T03:17:47;99638.94;;;10.16
45034;BMP280;30771;47.988;-4.186;2024-03-08T03:20:14;99631.88;;;10.17
45034;BMP280;30771;47.988;-4.186;2024-03-08T03:22:45;99629.59;;;10.21
45034;BMP280;30771;47.988;-4.186;2024-03-08T03:25:14;99624.34;;;10.21
45034;BMP280;30771;47.988;-4.186;2024-03-08T03:27:41;99614.25;;;10.18
45034;BMP280;30771;47.988;-4.186;2024-03-08T03:30:09;99614.00;;;10.19
45034;BMP280;30771;47.988;-4.186;2024-03-08T03:32:49;99606.13;;;10.19
45034;BMP280;30771;47.988;-4.186;2024-03-08T03:35:18;99601.66;;;10.19
45034;BMP280;30771;47.988;-4.186;2024-03-08T03:37:45;99600.44;;;10.22
45034;BMP280;30771;47.988;-4.186;2024-03-08T03:40:17;99593.16;;;10.24
45034;BMP280;30771;47.988;-4.186;2024-03-08T03:42:47;99579.78;;;10.26
45034;BMP280;30771;47.988;-4.186;2024-03-08T03:45:13;99577.94;;;10.26
45034;BMP280;30771;47.988;-4.186;2024-03-08T03:47:42;99564.78;;;10.26
45034;BMP280;30771;47.988;-4.186;2024-03-08T03:50:09;99546.00;;;10.23
45034;BMP280;30771;47.988;-4.186;2024-03-08T03:52:37;99543.16;;;10.24
45034;BMP280;30771;47.988;-4.186;2024-03-08T03:55:04;99521.75;;;10.21
45034;BMP280;30771;47.988;-4.186;2024-03-08T03:57:31;99499.91;;;10.20
45034;BMP280;30771;47.988;-4.186;2024-03-08T03:59:58;99491.19;;;10.19
45034;BMP280;30771;47.988;-4.186;2024-03-08T04:02:25;99463.38;;;10.12
45034;BMP280;30771;47.988;-4.186;2024-03-08T04:04:53;99429.84;;;10.07
45034;BMP280;30771;47.988;-4.186;2024-03-08T04:07:21;99398.53;;;10.06
45034;BMP280;30771;47.988;-4.186;2024-03-08T04:09:47;99368.84;;;9.99
45034;BMP280;30771;47.988;-4.186;2024-03-08T04:12:14;99343.03;;;9.96
45034;BMP280;30771;47.988;-4.186;2024-03-08T04:14:42;99316.38;;;9.92
45034;BMP280;30771;47.988;-4.186;2024-03-08T04:17:09;99304.47;;;9.90
45034;BMP280;30771;47.988;-4.186;2024-03-08T04:19:35;99280.66;;;9.85
45034;BMP280;30771;47.988;-4.186;2024-03-08T04:22:03;99263.75;;;9.81
45034;BMP280;30771;47.988;-4.186;2024-03-08T04:24:29;99242.16;;;9.79
45034;BMP280;30771;47.988;-4.186;2024-03-08T04:26:57;99224.19;;;9.76
45034;BMP280;30771;47.988;-4.186;2024-03-08T04:29:25;99217.88;;;9.77
45034;BMP280;30771;47.988;-4.186;2024-03-08T04:31:53;99212.63;;;9.77
45034;BMP280;30771;47.988;-4.186;2024-03-08T04:34:22;99205.81;;;9.76
45034;BMP280;30771;47.988;-4.186;2024-03-08T04:36:49;99186.03;;;9.73
45034;BMP280;30771;47.988;-4.186;2024-03-08T04:39:16;99165.81;;;9.74
45034;BMP280;30771;47.988;-4.186;2024-03-08T04:41:45;99157.91;;;9.74
45034;BMP280;30771;47.988;-4.186;2024-03-08T04:44:11;99151.03;;;9.73
45034;BMP280;30771;47.988;-4.186;2024-03-08T04:46:39;99146.03;;;9.71
45034;BMP280;30771;47.988;-4.186;2024-03-08T04:49:06;99134.28;;;9.74
45034;BMP280;30771;47.988;-4.186;2024-03-08T04:51:33;99134.69;;;9.71
45034;BMP280;30771;47.988;-4.186;2024-03-08T04:54:00;99129.00;;;9.74
45034;BMP280;30771;47.988;-4.186;2024-03-08T04:56:27;99110.25;;;9.70
45034;BMP280;30771;47.988;-4.186;2024-03-08T04:58:54;99128.41;;;9.72
45034;BMP280;30771;47.988;-4.186;2024-03-08T05:01:20;99131.25;;;9.70
45034;BMP280;30771;47.988;-4.186;2024-03-08T05:03:48;99127.25;;;9.68
45034;BMP280;30771;47.988;-4.186;2024-03-08T05:06:16;99124.63;;;9.68
45034;BMP280;30771;47.988;-4.186;2024-03-08T05:08:43;99122.25;;;9.66
45034;BMP280;30771;47.988;-4.186;2024-03-08T05:11:10;99112.56;;;9.67
45034;BMP280;30771;47.988;-4.186;2024-03-08T05:13:37;99109.94;;;9.67
45034;BMP280;30771;47.988;-4.186;2024-03-08T05:16:04;99110.69;;;9.67
45034;BMP280;30771;47.988;-4.186;2024-03-08T05:18:31;99105.69;;;9.66
45034;BMP280;30771;47.988;-4.186;2024-03-08T05:20:59;99096.78;;;9.67
45034;BMP280;30771;47.988;-4.186;2024-03-08T05:23:25;99100.97;;;9.68
45034;BMP280;30771;47.988;-4.186;2024-03-08T05:25:52;99087.84;;;9.68
45034;BMP280;30771;47.988;-4.186;2024-03-08T05:28:19;99096.53;;;9.68
45034;BMP280;30771;47.988;-4.186;2024-03-08T05:30:46;99092.06;;;9.69
45034;BMP280;30771;47.988;-4.186;2024-03-08T05:33:13;99087.97;;;9.73
45034;BMP280;30771;47.988;-4.186;2024-03-08T05:35:41;99082.47;;;9.74
45034;BMP280;30771;47.988;-4.186;2024-03-08T05:38:08;99073.81;;;9.74
45034;BMP280;30771;47.988;-4.186;2024-03-08T05:40:34;99071.41;;;9.72
45034;BMP280;30771;47.988;-4.186;2024-03-08T05:43:01;99068.34;;;9.75
45034;BMP280;30771;47.988;-4.186;2024-03-08T05:45:28;99044.91;;;9.74
45034;BMP280;30771;47.988;-4.186;2024-03-08T05:47:54;99046.94;;;9.72
45034;BMP280;30771;47.988;-4.186;2024-03-08T05:50:21;99043.88;;;9.75
45034;BMP280;30771;47.988;-4.186;2024-03-08T05:52:48;99032.78;;;9.73
45034;BMP280;30771;47.988;-4.186;2024-03-08T05:55:16;99022.28;;;9.73
45034;BMP280;30771;47.988;-4.186;2024-03-08T05:57:42;99014.81;;;9.70
45034;BMP280;30771;47.988;-4.186;2024-03-08T06:00:10;98977.47;;;9.68
45034;BMP280;30771;47.988;-4.186;2024-03-08T06:02:38;98963.78;;;9.66
45034;BMP280;30771;47.988;-4.186;2024-03-08T06:05:09;98961.41;;;9.64
45034;BMP280;30771;47.988;-4.186;2024-03-08T06:07:37;98950.06;;;9.64
45034;BMP280;30771;47.988;-4.186;2024-03-08T06:10:09;98942.41;;;9.62
45034;BMP280;30771;47.988;-4.186;2024-03-08T06:12:39;98941.63;;;9.62
45034;BMP280;30771;47.988;-4.186;2024-03-08T06:15:09;98922.63;;;9.60
45034;BMP280;30771;47.988;-4.186;2024-03-08T06:17:36;98908.47;;;9.61
45034;BMP280;30771;47.988;-4.186;2024-03-08T06:20:03;98897.06;;;9.55
45034;BMP280;30771;47.988;-4.186;2024-03-08T06:22:37;98882.09;;;9.56
45034;BMP280;30771;47.988;-4.186;2024-03-08T06:25:13;98883.34;;;9.53
45034;BMP280;30771;47.988;-4.186;2024-03-08T06:27:43;98859.38;;;9.50
45034;BMP280;30771;47.988;-4.186;2024-03-08T06:30:10;98847.41;;;9.42
45034;BMP280;30771;47.988;-4.186;2024-03-08T06:32:37;98846.38;;;9.43
45034;BMP280;30771;47.988;-4.186;2024-03-08T06:35:05;98819.53;;;9.41
45034;BMP280;30771;47.988;-4.186;2024-03-08T06:37:33;98787.19;;;9.41
45034;BMP280;30771;47.988;-4.186;2024-03-08T06:40:00;98752.97;;;9.36
45034;BMP280;30771;47.988;-4.186;2024-03-08T06:42:28;98739.84;;;9.36
45034;BMP280;30771;47.988;-4.186;2024-03-08T06:44:55;98715.88;;;9.32
45034;BMP280;30771;47.988;-4.186;2024-03-08T06:47:26;98693.28;;;9.31
45034;BMP280;30771;47.988;-4.186;2024-03-08T06:49:53;98692.81;;;9.34
45034;BMP280;30771;47.988;-4.186;2024-03-08T06:52:19;98686.19;;;9.32
45034;BMP280;30771;47.988;-4.186;2024-03-08T06:54:46;98677.53;;;9.31
45034;BMP280;30771;47.988;-4.186;2024-03-08T06:57:13;98665.66;;;9.29
45034;BMP280;30771;47.988;-4.186;2024-03-08T06:59:40;98664.13;;;9.33
45034;BMP280;30771;47.988;-4.186;2024-03-08T07:02:07;98658.88;;;9.33
45034;BMP280;30771;47.988;-4.186;2024-03-08T07:04:35;98659.47;;;9.35
45034;BMP280;30771;47.988;-4.186;2024-03-08T07:07:05;98654.22;;;9.35
45034;BMP280;30771;47.988;-4.186;2024-03-08T07:09:31;98656.03;;;9.34
45034;BMP280;30771;47.988;-4.186;2024-03-08T07:11:59;98662.44;;;9.38
45034;BMP280;30771;47.988;-4.186;2024-03-08T07:14:25;98661.41;;;9.39
45034;BMP280;30771;47.988;-4.186;2024-03-08T07:16:52;98649.84;;;9.40
45034;BMP280;30771;47.988;-4.186;2024-03-08T07:19:19;98650.63;;;9.41
45034;BMP280;30771;47.988;-4.186;2024-03-08T07:21:46;98650.19;;;9.44
45034;BMP280;30771;47.988;-4.186;2024-03-08T07:24:14;98646.28;;;9.46
45034;BMP280;30771;47.988;-4.186;2024-03-08T07:26:43;98644.38;;;9.42
45034;BMP280;30771;47.988;-4.186;2024-03-08T07:29:10;98636.59;;;9.47
45034;BMP280;30771;47.988;-4.186;2024-03-08T07:31:37;98637.97;;;9.49
45034;BMP280;30771;47.988;-4.186;2024-03-08T07:34:04;98644.00;;;9.50
45034;BMP280;30771;47.988;-4.186;2024-03-08T07:36:34;98633.25;;;9.51
45034;BMP280;30771;47.988;-4.186;2024-03-08T07:39:03;98631.75;;;9.55
45034;BMP280;30771;47.988;-4.186;2024-03-08T07:41:38;98621.22;;;9.55
45034;BMP280;30771;47.988;-4.186;2024-03-08T07:44:07;98641.53;;;9.60
45034;BMP280;30771;47.988;-4.186;2024-03-08T07:46:34;98635.00;;;9.62
45034;BMP280;30771;47.988;-4.186;2024-03-08T07:49:00;98622.66;;;9.63
45034;BMP280;30771;47.988;-4.186;2024-03-08T07:51:27;98622.66;;;9.63
45034;BMP280;30771;47.988;-4.186;2024-03-08T07:53:54;98625.38;;;9.68
45034;BMP280;30771;47.988;-4.186;2024-03-08T07:56:26;98607.53;;;9.70
45034;BMP280;30771;47.988;-4.186;2024-03-08T07:58:53;98592.81;;;9.69
45034;BMP280;30771;47.988;-4.186;2024-03-08T08:01:19;98591.88;;;9.75
45034;BMP280;30771;47.988;-4.186;2024-03-08T08:03:47;98574.28;;;9.75
45034;BMP280;30771;47.988;-4.186;2024-03-08T08:06:15;98553.31;;;9.80
45034;BMP280;30771;47.988;-4.186;2024-03-08T08:08:42;98550.25;;;9.83
45034;BMP280;30771;47.988;-4.186;2024-03-08T08:11:09;98536.28;;;9.83
45034;BMP280;30771;47.988;-4.186;2024-03-08T08:13:38;98559.00;;;9.89
45034;BMP280;30771;47.988;-4.186;2024-03-08T08:16:05;98555.63;;;9.93
45034;BMP280;30771;47.988;-4.186;2024-03-08T08:18:33;98547.03;;;9.98
45034;BMP280;30771;47.988;-4.186;2024-03-08T08:20:59;98536.56;;;10.03
45034;BMP280;30771;47.988;-4.186;2024-03-08T08:23:29;98523.50;;;10.08
45034;BMP280;30771;47.988;-4.186;2024-03-08T08:25:56;98513.59;;;10.15
45034;BMP280;30771;47.988;-4.186;2024-03-08T08:28:23;98498.44;;;10.22
45034;BMP280;30771;47.988;-4.186;2024-03-08T08:30:51;98493.78;;;10.29
45034;BMP280;30771;47.988;-4.186;2024-03-08T08:33:17;98480.72;;;10.34
45034;BMP280;30771;47.988;-4.186;2024-03-08T08:35:44;98484.66;;;10.37
45034;BMP280;30771;47.988;-4.186;2024-03-08T08:38:11;98483.72;;;10.43
45034;BMP280;30771;47.988;-4.186;2024-03-08T08:40:39;98494.50;;;10.46
45034;BMP280;30771;47.988;-4.186;2024-03-08T08:43:06;98499.81;;;10.51
45034;BMP280;30771;47.988;-4.186;2024-03-08T08:45:33;98489.03;;;10.53
45034;BMP280;30771;47.988;-4.186;2024-03-08T08:48:00;98488.34;;;10.57
45034;BMP280;30771;47.988;-4.186;2024-03-08T08:50:27;98478.34;;;10.59
45034;BMP280;30771;47.988;-4.186;2024-03-08T08:52:55;98494.41;;;10.63
45034;BMP280;30771;47.988;-4.186;2024-03-08T08:55:22;98498.19;;;10.67
45034;BMP280;30771;47.988;-4.186;2024-03-08T08:57:53;98502.69;;;10.71
45034;BMP280;30771;47.988;-4.186;2024-03-08T09:00:20;98512.72;;;10.74
45034;BMP280;30771;47.988;-4.186;2024-03-08T09:02:48;98513.53;;;10.80
45034;BMP280;30771;47.988;-4.186;2024-03-08T09:05:15;98518.63;;;10.86
45034;BMP280;30771;47.988;-4.186;2024-03-08T09:07:44;98533.41;;;10.92
45034;BMP280;30771;47.988;-4.186;2024-03-08T09:10:11;98532.94;;;10.95
45034;BMP280;30771;47.988;-4.186;2024-03-08T09:12:41;98546.13;;;11.00
45034;BMP280;30771;47.988;-4.186;2024-03-08T09:15:08;98561.22;;;11.10
45034;BMP280;30771;47.988;-4.186;2024-03-08T09:17:38;98571.00;;;11.14
45034;BMP280;30771;47.988;-4.186;2024-03-08T09:20:09;98586.66;;;11.21
45034;BMP280;30771;47.988;-4.186;2024-03-08T09:22:37;98587.25;;;11.28
45034;BMP280;30771;47.988;-4.186;2024-03-08T09:25:04;98589.34;;;11.31
45034;BMP280;30771;47.988;-4.186;2024-03-08T09:27:31;98607.88;;;11.41
45034;BMP280;30771;47.988;-4.186;2024-03-08T09:29:58;98617.72;;;11.51
45034;BMP280;30771;47.988;-4.186;2024-03-08T09:32:25;98615.16;;;11.61
45034;BMP280;30771;47.988;-4.186;2024-03-08T09:34:53;98624.75;;;11.72
45034;BMP280;30771;47.988;-4.186;2024-03-08T09:37:20;98638.47;;;11.74
45034;BMP280;30771;47.988;-4.186;2024-03-08T09:39:46;98661.94;;;11.75
45034;BMP280;30771;47.988;-4.186;2024-03-08T09:42:15;98676.16;;;11.74
45034;BMP280;30771;47.988;-4.186;2024-03-08T09:44:46;98679.13;;;11.83
45034;BMP280;30771;47.988;-4.186;2024-03-08T09:47:14;98698.16;;;11.85
45034;BMP280;30771;47.988;-4.186;2024-03-08T09:49:41;98718.13;;;11.81
45034;BMP280;30771;47.988;-4.186;2024-03-08T09:52:10;98727.34;;;11.78
45034;BMP280;30771;47.988;-4.186;2024-03-08T09:54:39;98741.28;;;11.74
45034;BMP280;30771;47.988;-4.186;2024-03-08T09:57:06;98750.25;;;11.73
45034;BMP280;30771;47.988;-4.186;2024-03-08T09:59:35;98757.38;;;11.72
45034;BMP280;30771;47.988;-4.186;2024-03-08T10:02:02;98768.75;;;11.78
45034;BMP280;30771;47.988;-4.186;2024-03-08T10:04:29;98759.59;;;11.85
45034;BMP280;30771;47.988;-4.186;2024-03-08T10:06:58;98768.09;;;11.92
45034;BMP280;30771;47.988;-4.186;2024-03-08T10:09:25;98762.63;;;11.99
45034;BMP280;30771;47.988;-4.186;2024-03-08T10:11:56;98784.78;;;12.03
45034;BMP280;30771;47.988;-4.186;2024-03-08T10:14:25;98782.22;;;12.08
45034;BMP280;30771;47.988;-4.186;2024-03-08T10:16:53;98795.94;;;12.10
45034;BMP280;30771;47.988;-4.186;2024-03-08T10:19:20;98793.38;;;12.15
45034;BMP280;30771;47.988;-4.186;2024-03-08T10:21:52;98794.69;;;12.17
45034;BMP280;30771;47.988;-4.186;2024-03-08T10:24:20;98804.22;;;12.18
45034;BMP280;30771;47.988;-4.186;2024-03-08T10:26:47;98811.34;;;12.23
45034;BMP280;30771;47.988;-4.186;2024-03-08T10:29:14;98799.03;;;12.29
45034;BMP280;30771;47.988;-4.186;2024-03-08T10:31:44;98803.56;;;12.38
45034;BMP280;30771;47.988;-4.186;2024-03-08T10:34:11;98806.00;;;12.45
45034;BMP280;30771;47.988;-4.186;2024-03-08T10:36:39;98805.81;;;12.56
45034;BMP280;30771;47.988;-4.186;2024-03-08T10:39:23;98794.53;;;12.66
45034;BMP280;30771;47.988;-4.186;2024-03-08T10:41:56;98793.31;;;12.83
45034;BMP280;30771;47.988;-4.186;2024-03-08T10:47:18;98813.50;;;12.99
45034;BMP280;30771;47.988;-4.186;2024-03-08T10:50:02;98823.50;;;12.97
45034;BMP280;30771;47.988;-4.186;2024-03-08T10:52:31;98829.63;;;13.03
45034;BMP280;30771;47.988;-4.186;2024-03-08T10:54:59;98830.69;;;13.02
45034;BMP280;30771;47.988;-4.186;2024-03-08T10:57:27;98849.44;;;13.05
45034;BMP280;30771;47.988;-4.186;2024-03-08T10:59:54;98842.84;;;13.08
45034;BMP280;30771;47.988;-4.186;2024-03-08T11:02:25;98839.19;;;13.09
45034;BMP280;30771;47.988;-4.186;2024-03-08T11:04:54;98854.22;;;13.08
45034;BMP280;30771;47.988;-4.186;2024-03-08T11:07:24;98862.41;;;13.07
45034;BMP280;30771;47.988;-4.186;2024-03-08T11:09:55;98856.03;;;13.03
45034;BMP280;30771;47.988;-4.186;2024-03-08T11:12:29;98848.06;;;12.98
45034;BMP280;30771;47.988;-4.186;2024-03-08T11:14:59;98856.78;;;12.98
45034;BMP280;30771;47.988;-4.186;2024-03-08T11:19:58;98839.69;;;13.11
45034;BMP280;30771;47.988;-4.186;2024-03-08T11:22:33;98821.00;;;13.22
45034;BMP280;30771;47.988;-4.186;2024-03-08T11:25:04;98827.66;;;13.35
45034;BMP280;30771;47.988;-4.186;2024-03-08T11:27:37;98831.41;;;13.39
45034;BMP280;30771;47.988;-4.186;2024-03-08T11:30:06;98836.13;;;13.42
45034;BMP280;30771;47.988;-4.186;2024-03-08T11:32:45;98843.31;;;13.42
45034;BMP280;30771;47.988;-4.186;2024-03-08T11:35:22;98853.84;;;13.37
45034;BMP280;30771;47.988;-4.186;2024-03-08T11:37:52;98860.94;;;13.31
45034;BMP280;30771;47.988;-4.186;2024-03-08T11:40:19;98868.31;;;13.24
45034;BMP280;30771;47.988;-4.186;2024-03-08T11:42:47;98875.19;;;13.25
45034;BMP280;30771;47.988;-4.186;2024-03-08T11:45:15;98871.25;;;13.27
45034;BMP280;30771;47.988;-4.186;2024-03-08T11:47:44;98863.09;;;13.34
45034;BMP280;30771;47.988;-4.186;2024-03-08T11:50:16;98846.16;;;13.35
45034;BMP280;30771;47.988;-4.186;2024-03-08T11:52:43;98848.81;;;13.35
45034;BMP280;30771;47.988;-4.186;2024-03-08T11:55:11;98852.75;;;13.27
45034;BMP280;30771;47.988;-4.186;2024-03-08T11:57:39;98853.50;;;13.23
45034;BMP280;30771;47.988;-4.186;2024-03-08T12:00:15;98852.66;;;13.17
45034;BMP280;30771;47.988;-4.186;2024-03-08T12:03:04;98846.31;;;13.13
45034;BMP280;30771;47.988;-4.186;2024-03-08T12:05:32;98833.13;;;13.13
45034;BMP280;30771;47.988;-4.186;2024-03-08T12:08:03;98805.09;;;13.07
45034;BMP280;30771;47.988;-4.186;2024-03-08T12:10:33;98789.47;;;13.01
45034;BMP280;30771;47.988;-4.186;2024-03-08T12:13:01;98761.69;;;12.98
45034;BMP280;30771;47.988;-4.186;2024-03-08T12:15:31;98739.75;;;12.98
45034;BMP280;30771;47.988;-4.186;2024-03-08T12:18:00;98692.78;;;13.00
45034;BMP280;30771;47.988;-4.186;2024-03-08T12:20:28;98664.50;;;13.05
45034;BMP280;30771;47.988;-4.186;2024-03-08T12:22:58;98630.69;;;13.12
45034;BMP280;30771;47.988;-4.186;2024-03-08T12:25:35;98597.97;;;13.23
45034;BMP280;30771;47.988;-4.186;2024-03-08T12:28:12;98569.16;;;13.32
45034;BMP280;30771;47.988;-4.186;2024-03-08T12:30:48;98550.94;;;13.36
45034;BMP280;30771;47.988;-4.186;2024-03-08T12:33:15;98532.94;;;13.43
45034;BMP280;30771;47.988;-4.186;2024-03-08T12:35:53;98499.63;;;13.52
45034;BMP280;30771;47.988;-4.186;2024-03-08T12:38:22;98470.53;;;13.57
45034;BMP280;30771;47.988;-4.186;2024-03-08T12:40:58;98461.22;;;13.69
45034;BMP280;30771;47.988;-4.186;2024-03-08T12:43:25;98438.22;;;13.70
45034;BMP280;30771;47.988;-4.186;2024-03-08T12:45:52;98448.28;;;13.73
45034;BMP280;30771;47.988;-4.186;2024-03-08T12:48:19;98431.88;;;13.76
45034;BMP280;30771;47.988;-4.186;2024-03-08T12:50:47;98413.31;;;13.86
45034;BMP280;30771;47.988;-4.186;2024-03-08T12:53:14;98373.00;;;13.99
45034;BMP280;30771;47.988;-4.186;2024-03-08T12:55:41;98379.56;;;14.11
45034;BMP280;30771;47.988;-4.186;2024-03-08T12:58:09;98395.69;;;14.15
45034;BMP280;30771;47.988;-4.186;2024-03-08T13:00:35;98405.72;;;14.13
45034;BMP280;30771;47.988;-4.186;2024-03-08T13:03:09;98405.97;;;14.16
45034;BMP280;30771;47.988;-4.186;2024-03-08T13:05:38;98398.81;;;14.22
45034;BMP280;30771;47.988;-4.186;2024-03-08T13:08:07;98430.59;;;14.17
45034;BMP280;30771;47.988;-4.186;2024-03-08T13:10:40;98443.31;;;14.20
45034;BMP280;30771;47.988;-4.186;2024-03-08T13:13:11;98454.13;;;14.18
45034;BMP280;30771;47.988;-4.186;2024-03-08T13:15:42;98471.88;;;14.18
45034;BMP280;30771;47.988;-4.186;2024-03-08T13:18:09;98495.16;;;14.16
45034;BMP280;30771;47.988;-4.186;2024-03-08T13:20:36;98506.31;;;14.08
45034;BMP280;30771;47.988;-4.186;2024-03-08T13:23:13;98514.50;;;14.11
45034;BMP280;30771;47.988;-4.186;2024-03-08T13:25:40;98530.69;;;14.05
45034;BMP280;30771;47.988;-4.186;2024-03-08T13:28:08;98525.13;;;14.06
45034;BMP280;30771;47.988;-4.186;2024-03-08T13:30:35;98530.94;;;14.08
45034;BMP280;30771;47.988;-4.186;2024-03-08T13:33:02;98521.16;;;14.09
45034;BMP280;30771;47.988;-4.186;2024-03-08T13:35:31;98525.06;;;14.16
45034;BMP280;30771;47.988;-4.186;2024-03-08T13:37:59;98523.50;;;14.15
45034;BMP280;30771;47.988;-4.186;2024-03-08T13:40:29;98513.72;;;14.11
45034;BMP280;30771;47.988;-4.186;2024-03-08T13:42:57;98531.44;;;14.10
45034;BMP280;30771;47.988;-4.186;2024-03-08T13:45:26;98519.56;;;14.08
45034;BMP280;30771;47.988;-4.186;2024-03-08T13:47:56;98520.63;;;14.07
45034;BMP280;30771;47.988;-4.186;2024-03-08T13:50:23;98530.19;;;14.03
45034;BMP280;30771;47.988;-4.186;2024-03-08T13:52:50;98521.72;;;13.96
45034;BMP280;30771;47.988;-4.186;2024-03-08T13:55:21;98509.56;;;13.95
45034;BMP280;30771;47.988;-4.186;2024-03-08T13:57:54;98503.19;;;13.96
45034;BMP280;30771;47.988;-4.186;2024-03-08T14:00:21;98508.47;;;14.01
45034;BMP280;30771;47.988;-4.186;2024-03-08T14:02:49;98509.75;;;14.08
45034;BMP280;30771;47.988;-4.186;2024-03-08T14:05:16;98517.44;;;14.10
45034;BMP280;30771;47.988;-4.186;2024-03-08T14:07:45;98541.25;;;14.15
45034;BMP280;30771;47.988;-4.186;2024-03-08T14:10:16;98557.66;;;14.12